KJHW

Chautauqua County / Jamestown Airport

Jamestown, New York, USA
METAR KJHW 151856Z AUTO 28016G22KT 10SM BKN021 BKN029 OVC045 01/M04 A2958 RMK AO2 SLP032 T00061039 FZRANO
Observed Flight Rules
Feb-15 @ 18:56 UTC (13 minutes ago) Marginal Visual Flight Rules
Wind Visibility Clouds
280° at 16 knots
 Gusting to 22 knots
10 miles
  • Broken at 2,100' AGL
  • Broken at 2,900' AGL
  • Overcast at 4,500' AGL
Temperatures Readings
Current 1°C / 34°F
Dewpoint -4°C / 25°F
Humidity 70%
Altimeter 29.58" Hg
Pressure 1003.2 hPa
Elevation 525
METAR KJHW 151856Z AUTO 28016G22KT 10SM BKN021 BKN029 OVC045 01/M04 A2958 RMK AO2 SLP032 T00061039 FZRANO
Observed Flight Rules
Feb-15 @ 18:56 UTC
(13 minutes ago)
MVFR
Wind Visibility
280° at 16 knots
 Gusting to 22 knots
10 miles
Clouds
  • Broken at 2,100' AGL
  • Broken at 2,900' AGL
  • Overcast at 4,500' AGL
Temperature Dewpoint
1°C / 34°F -4°C / 25°F
Humidity Altimeter Pressure
70% 29.58" Hg 1003.2 hPa